createdAt,value
2023-02-02T00:01:15.763Z,100625.75
2023-02-02T00:03:43.667Z,100618.25
2023-02-02T00:06:11.554Z,100614.03
2023-02-02T00:08:39.345Z,100605.31
2023-02-02T00:11:07.161Z,100603.25
2023-02-02T00:13:34.706Z,100592.47
2023-02-02T00:16:27.546Z,100592.78
2023-02-02T00:18:57.482Z,100597.22
2023-02-02T00:21:25.601Z,100590.63
2023-02-02T00:23:53.310Z,100586.75
2023-02-02T00:26:21.597Z,100589.34
2023-02-02T00:28:49.111Z,100585.34
2023-02-02T00:31:16.690Z,100588.78
2023-02-02T00:33:48.850Z,100586.37
2023-02-02T00:36:17.464Z,100592.13
2023-02-02T00:38:46.715Z,100598.72
2023-02-02T00:41:14.423Z,100601.03
2023-02-02T00:43:42.161Z,100604.75
2023-02-02T00:46:14.601Z,100603.72
2023-02-02T00:48:42.121Z,100607.72
2023-02-02T00:51:10.989Z,100601.94
2023-02-02T00:53:38.449Z,100604.72
2023-02-02T00:56:06.170Z,100608.25
2023-02-02T00:58:34.170Z,100608.91
2023-02-02T01:01:01.824Z,100632.19
2023-02-02T01:03:29.363Z,100630.19
2023-02-02T01:05:57.161Z,100631.50
2023-02-02T01:08:25.737Z,100613.28
2023-02-02T01:10:53.218Z,100595.75
2023-02-02T01:13:23.139Z,100601.12
2023-02-02T01:15:55.819Z,100585.41
2023-02-02T01:18:23.670Z,100586.44
2023-02-02T01:21:02.363Z,100572.03
2023-02-02T01:23:30.890Z,100579.66
2023-02-02T01:26:00.145Z,100571.69
2023-02-02T01:28:28.979Z,100570.56
2023-02-02T01:30:57.944Z,100575.84
2023-02-02T01:33:25.921Z,100577.44
2023-02-02T01:35:55.527Z,100571.31
2023-02-02T01:38:24.845Z,100578.03
2023-02-02T01:40:55.221Z,100571.88
2023-02-02T01:43:50.364Z,100566.31
2023-02-02T01:46:23.670Z,100574.75
2023-02-02T01:49:07.163Z,100565.09
2023-02-02T01:52:00.239Z,100559.22
2023-02-02T01:54:39.925Z,100556.38
2023-02-02T01:57:23.057Z,100553.09
2023-02-02T01:59:53.111Z,100555.72
2023-02-02T02:02:21.074Z,100553.09
2023-02-02T02:04:50.477Z,100539.91
2023-02-02T02:07:19.162Z,100525.16
2023-02-02T02:09:47.873Z,100514.44
2023-02-02T02:12:16.947Z,100506.19
2023-02-02T02:15:07.283Z,100490.69
2023-02-02T02:17:47.664Z,100494.00
2023-02-02T02:20:39.911Z,100503.31
2023-02-02T02:23:54.261Z,100507.56
2023-02-02T02:26:58.587Z,100493.94
2023-02-02T02:29:53.548Z,100506.19
2023-02-02T02:33:00.683Z,100504.44
2023-02-02T02:35:37.941Z,100503.59
2023-02-02T02:38:21.669Z,100489.28
2023-02-02T02:41:00.399Z,100497.47
2023-02-02T02:43:33.251Z,100504.06
2023-02-02T02:46:01.869Z,100509.44
2023-02-02T02:48:29.904Z,100503.88
2023-02-02T02:51:43.847Z,100516.59
2023-02-02T02:54:24.677Z,100493.94
2023-02-02T02:57:07.232Z,100498.19
2023-02-02T02:59:59.293Z,100506.59
2023-02-02T03:02:31.447Z,100505.19
2023-02-02T03:04:59.101Z,100493.56
2023-02-02T03:07:34.129Z,100494.19
2023-02-02T03:10:04.393Z,100488.16
2023-02-02T03:12:31.941Z,100489.91
2023-02-02T03:14:59.369Z,100492.94
2023-02-02T03:17:28.145Z,100504.09
2023-02-02T03:19:55.791Z,100512.44
2023-02-02T03:22:23.273Z,100494.69
2023-02-02T03:24:51.052Z,100491.44
2023-02-02T03:27:18.509Z,100501.47
2023-02-02T03:29:46.016Z,100510.72
2023-02-02T03:32:13.740Z,100499.28
2023-02-02T03:34:41.219Z,100503.56
2023-02-02T03:37:08.826Z,100514.81
2023-02-02T03:39:37.177Z,100525.31
2023-02-02T03:42:05.037Z,100514.72
2023-02-02T03:44:32.552Z,100514.72
2023-02-02T03:47:00.283Z,100494.25
2023-02-02T03:49:27.849Z,100511.19
2023-02-02T03:51:55.285Z,100519.72
2023-02-02T03:54:23.045Z,100524.47
2023-02-02T03:56:50.432Z,100532.75
2023-02-02T03:59:17.882Z,100525.91
2023-02-02T04:01:45.611Z,100523.41
2023-02-02T04:04:13.369Z,100530.28
2023-02-02T04:06:40.846Z,100522.66
2023-02-02T04:09:09.018Z,100527.78
2023-02-02T04:11:36.792Z,100523.16
2023-02-02T04:14:04.494Z,100521.28
2023-02-02T04:16:34.896Z,100515.69
2023-02-02T04:19:02.733Z,100526.03
2023-02-02T04:21:30.404Z,100534.97
2023-02-02T04:23:57.912Z,100541.84
2023-02-02T04:26:26.289Z,100551.31
2023-02-02T04:28:54.082Z,100556.63
2023-02-02T04:31:21.640Z,100522.44
2023-02-02T04:33:49.454Z,100515.47
2023-02-02T04:36:16.920Z,100503.56
2023-02-02T04:38:44.693Z,100491.66
2023-02-02T04:41:14.619Z,100478.22
2023-02-02T04:43:42.386Z,100484.47
2023-02-02T04:46:09.932Z,100484.47
2023-02-02T04:48:38.597Z,100487.16
2023-02-02T04:51:08.758Z,100493.56
2023-02-02T04:53:36.261Z,100503.91
2023-02-02T04:56:09.045Z,100521.28
2023-02-02T04:58:36.479Z,100535.03
2023-02-02T05:01:19.439Z,100516.94
2023-02-02T05:03:47.723Z,100512.34
2023-02-02T05:06:16.794Z,100511.75
2023-02-02T05:08:44.418Z,100505.53
2023-02-02T05:11:14.592Z,100502.06
2023-02-02T05:13:47.371Z,100506.56
2023-02-02T05:16:15.683Z,100520.41
2023-02-02T05:18:48.436Z,100512.72
2023-02-02T05:21:15.952Z,100522.28
2023-02-02T05:23:43.732Z,100539.22
2023-02-02T05:26:20.941Z,100535.87
2023-02-02T05:28:48.743Z,100526.50
2023-02-02T05:31:16.645Z,100521.66
2023-02-02T05:33:44.373Z,100541.28
2023-02-02T05:36:12.951Z,100537.38
2023-02-02T05:38:40.366Z,100527.47
2023-02-02T05:41:07.880Z,100543.38
2023-02-02T05:43:35.624Z,100553.84
2023-02-02T05:46:03.355Z,100548.09
2023-02-02T05:48:31.554Z,100544.09
2023-02-02T05:51:08.010Z,100539.38
2023-02-02T05:53:35.399Z,100544.94
2023-02-02T05:56:03.498Z,100563.13
2023-02-02T05:58:30.953Z,100566.00
2023-02-02T06:00:58.457Z,100570.38
2023-02-02T06:03:26.329Z,100567.38
2023-02-02T06:05:53.909Z,100571.28
2023-02-02T06:08:21.366Z,100571.66
2023-02-02T06:10:49.422Z,100568.41
2023-02-02T06:13:16.945Z,100593.75
2023-02-02T06:15:44.467Z,100578.91
2023-02-02T06:18:12.474Z,100584.34
2023-02-02T06:20:40.061Z,100591.25
2023-02-02T06:23:07.534Z,100597.28
2023-02-02T06:25:35.430Z,100586.22
2023-02-02T06:28:03.039Z,100589.84
2023-02-02T06:30:30.585Z,100607.19
2023-02-02T06:33:00.037Z,100609.87
2023-02-02T06:35:27.764Z,100612.56
2023-02-02T06:37:55.315Z,100593.63
2023-02-02T06:40:23.075Z,100596.22
2023-02-02T06:42:59.509Z,100590.47
2023-02-02T06:45:30.028Z,100588.59
2023-02-02T06:48:03.645Z,100591.12
2023-02-02T06:50:31.439Z,100615.25
2023-02-02T06:52:58.898Z,100606.97
2023-02-02T06:55:26.709Z,100604.31
2023-02-02T06:57:58.834Z,100596.06
2023-02-02T07:00:27.964Z,100578.63
2023-02-02T07:02:56.488Z,100582.87
2023-02-02T07:05:24.679Z,100606.84
2023-02-02T07:07:52.635Z,100605.06
2023-02-02T07:11:14.155Z,100606.09
2023-02-02T07:13:07.969Z,100593.66
2023-02-02T07:15:38.143Z,100597.03
2023-02-02T07:18:06.362Z,100590.53
2023-02-02T07:20:34.214Z,100602.81
2023-02-02T07:23:04.731Z,100599.03
2023-02-02T07:25:33.437Z,100613.19
2023-02-02T07:28:01.175Z,100609.47
2023-02-02T07:30:29.979Z,100600.28
2023-02-02T07:32:58.301Z,100605.31
2023-02-02T07:35:26.644Z,100609.47
2023-02-02T07:37:55.869Z,100603.00
2023-02-02T07:40:23.754Z,100604.28
2023-02-02T07:42:51.390Z,100611.00
2023-02-02T07:45:27.021Z,100609.25
2023-02-02T07:48:00.838Z,100615.84
2023-02-02T07:50:30.869Z,100621.97
2023-02-02T07:53:01.172Z,100626.63
2023-02-02T07:55:29.367Z,100641.69
2023-02-02T07:57:58.981Z,100648.81
2023-02-02T08:00:26.954Z,100655.50
2023-02-02T08:02:54.791Z,100672.62
2023-02-02T08:05:23.098Z,100687.41
2023-02-02T08:07:50.800Z,100675.59
2023-02-02T08:10:18.663Z,100675.69
2023-02-02T08:12:46.110Z,100670.94
2023-02-02T08:15:13.598Z,100667.78
2023-02-02T08:17:45.521Z,100663.87
2023-02-02T08:20:13.752Z,100663.31
2023-02-02T08:22:41.736Z,100671.09
2023-02-02T08:25:09.559Z,100667.91
2023-02-02T08:27:38.035Z,100663.16
2023-02-02T08:30:06.435Z,100666.78
2023-02-02T08:32:33.896Z,100657.63
2023-02-02T08:35:01.359Z,100663.81
2023-02-02T08:37:29.083Z,100665.56
2023-02-02T08:39:56.629Z,100660.94
2023-02-02T08:42:24.042Z,100671.44
2023-02-02T08:46:02.230Z,100675.16
2023-02-02T08:47:39.268Z,100688.78
2023-02-02T08:50:07.325Z,100696.03
2023-02-02T08:52:34.840Z,100693.34
2023-02-02T08:55:04.407Z,100704.31
2023-02-02T08:57:32.707Z,100688.47
2023-02-02T09:00:00.205Z,100700.25
2023-02-02T09:02:27.888Z,100702.34
2023-02-02T09:04:55.764Z,100698.78
2023-02-02T09:07:23.194Z,100701.84
2023-02-02T09:09:52.676Z,100709.34
2023-02-02T09:12:20.489Z,100704.06
2023-02-02T09:14:48.103Z,100700.28
2023-02-02T09:17:15.548Z,100709.47
2023-02-02T09:19:43.434Z,100721.78
2023-02-02T09:22:11.211Z,100720.06
2023-02-02T09:24:38.763Z,100724.19
2023-02-02T09:27:06.615Z,100722.44
2023-02-02T09:29:34.235Z,100717.66
2023-02-02T09:32:01.765Z,100717.03
2023-02-02T09:34:29.690Z,100716.00
2023-02-02T09:36:57.196Z,100709.09
2023-02-02T09:39:25.062Z,100713.06
2023-02-02T09:42:19.767Z,100708.16
2023-02-02T09:45:01.853Z,100704.44
2023-02-02T09:47:47.803Z,100699.34
2023-02-02T09:50:34.477Z,100698.28
2023-02-02T09:53:18.847Z,100710.72
2023-02-02T09:55:50.211Z,100691.91
2023-02-02T09:58:33.806Z,100699.53
2023-02-02T10:01:10.430Z,100695.53
2023-02-02T10:03:57.370Z,100695.31
2023-02-02T10:06:39.809Z,100694.50
2023-02-02T10:09:26.501Z,100668.66
2023-02-02T10:12:00.631Z,100675.13
2023-02-02T10:14:37.010Z,100666.94
2023-02-02T10:17:37.541Z,100664.31
2023-02-02T10:20:19.073Z,100658.09
2023-02-02T10:22:47.897Z,100683.66
2023-02-02T10:25:17.122Z,100675.38
2023-02-02T10:28:06.747Z,100685.09
2023-02-02T10:30:46.150Z,100662.97
2023-02-02T10:33:31.350Z,100683.00
2023-02-02T10:36:27.365Z,100661.19
2023-02-02T10:39:11.334Z,100680.44
2023-02-02T10:41:46.918Z,100673.78
2023-02-02T10:44:30.049Z,100678.59
2023-02-02T10:47:04.010Z,100664.13
2023-02-02T10:49:31.981Z,100667.06
2023-02-02T10:52:06.523Z,100663.38
2023-02-02T10:55:13.016Z,100662.50
2023-02-02T10:58:06.424Z,100668.63
2023-02-02T11:00:40.581Z,100668.69
2023-02-02T11:03:11.362Z,100658.41
2023-02-02T11:05:57.507Z,100654.78
2023-02-02T11:08:33.946Z,100661.94
2023-02-02T11:11:33.155Z,100663.69
2023-02-02T11:14:15.214Z,100663.69
2023-02-02T11:16:45.466Z,100655.16
2023-02-02T11:19:22.176Z,100656.09
2023-02-02T11:21:59.156Z,100647.22
2023-02-02T11:24:49.711Z,100636.34
2023-02-02T11:27:21.229Z,100660.87
2023-02-02T11:29:53.000Z,100645.28
2023-02-02T11:32:37.538Z,100664.94
2023-02-02T11:35:08.657Z,100636.00
2023-02-02T11:37:37.953Z,100629.44
2023-02-02T11:40:31.936Z,100638.28
2023-02-02T11:43:04.697Z,100635.16
2023-02-02T11:45:42.752Z,100628.84
2023-02-02T11:48:22.488Z,100635.06
2023-02-02T11:50:53.904Z,100620.41
2023-02-02T11:53:31.100Z,100625.03
2023-02-02T11:56:09.826Z,100624.66
2023-02-02T11:58:48.565Z,100627.25
2023-02-02T12:01:25.782Z,100624.78
2023-02-02T12:03:59.335Z,100625.62
2023-02-02T12:06:32.837Z,100624.41
2023-02-02T12:09:09.904Z,100614.31
2023-02-02T12:11:43.262Z,100608.22
2023-02-02T12:14:29.429Z,100621.84
2023-02-02T12:17:08.853Z,100610.37
2023-02-02T12:19:53.464Z,100610.63
2023-02-02T12:22:29.789Z,100603.94
2023-02-02T12:25:01.198Z,100611.56
2023-02-02T12:27:49.931Z,100610.47
2023-02-02T12:30:17.552Z,100622.94
2023-02-02T12:32:50.801Z,100608.41
2023-02-02T12:35:21.503Z,100616.53
2023-02-02T12:38:18.791Z,100604.78
2023-02-02T12:41:01.889Z,100605.84
2023-02-02T12:43:38.538Z,100619.56
2023-02-02T12:46:33.841Z,100615.63
2023-02-02T12:49:25.379Z,100600.34
2023-02-02T12:51:58.325Z,100607.25
2023-02-02T12:55:10.079Z,100602.38
2023-02-02T12:58:01.253Z,100607.44
2023-02-02T13:00:39.520Z,100608.22
2023-02-02T13:03:23.752Z,100630.66
2023-02-02T13:06:00.172Z,100614.56
2023-02-02T13:08:38.125Z,100608.47
2023-02-02T13:11:31.318Z,100628.34
2023-02-02T13:14:33.661Z,100625.34
2023-02-02T13:17:12.983Z,100620.34
2023-02-02T13:19:45.461Z,100621.38
2023-02-02T13:22:19.968Z,100620.66
2023-02-02T13:24:51.040Z,100628.78
2023-02-02T13:27:21.382Z,100628.06
2023-02-02T13:29:57.506Z,100622.22
2023-02-02T13:32:35.173Z,100626.50
2023-02-02T13:35:39.439Z,100621.56
2023-02-02T13:38:15.036Z,100625.84
2023-02-02T13:40:44.161Z,100613.47
2023-02-02T13:43:17.689Z,100622.41
2023-02-02T13:46:07.173Z,100630.19
2023-02-02T13:49:13.460Z,100639.41
2023-02-02T13:52:19.471Z,100632.28
2023-02-02T13:55:21.123Z,100643.22
2023-02-02T13:58:19.893Z,100663.38
2023-02-02T14:00:54.582Z,100665.44
2023-02-02T14:03:42.560Z,100664.34
2023-02-02T14:06:28.752Z,100665.44
2023-02-02T14:09:05.627Z,100671.91
2023-02-02T14:11:36.334Z,100678.91
2023-02-02T14:14:38.884Z,100679.56
2023-02-02T14:17:17.288Z,100683.69
2023-02-02T14:19:59.219Z,100682.50
2023-02-02T14:22:48.383Z,100694.47
2023-02-02T14:25:34.208Z,100687.59
2023-02-02T14:28:04.250Z,100679.03
2023-02-02T14:30:38.766Z,100712.78
2023-02-02T14:33:21.371Z,100694.19
2023-02-02T14:35:49.110Z,100686.94
2023-02-02T14:38:37.825Z,100695.88
2023-02-02T14:41:13.051Z,100684.19
2023-02-02T14:43:50.975Z,100680.13
2023-02-02T14:46:53.996Z,100697.47
2023-02-02T14:49:25.915Z,100692.91
2023-02-02T14:51:58.175Z,100685.66
2023-02-02T14:54:31.364Z,100690.31
2023-02-02T14:57:03.191Z,100685.22
2023-02-02T14:59:37.434Z,100683.94
2023-02-02T15:02:19.889Z,100693.38
2023-02-02T15:04:48.350Z,100699.75
2023-02-02T15:07:24.940Z,100693.91
2023-02-02T15:09:58.187Z,100698.91
2023-02-02T15:12:44.645Z,100700.12
2023-02-02T15:15:25.667Z,100691.16
2023-02-02T15:18:19.495Z,100702.63
2023-02-02T15:20:49.711Z,100707.75
2023-02-02T15:23:40.688Z,100704.69
2023-02-02T15:26:29.332Z,100715.97
2023-02-02T15:29:16.023Z,100721.00
2023-02-02T15:31:47.359Z,100716.19
2023-02-02T15:34:21.830Z,100727.84
2023-02-02T15:36:54.069Z,100729.28
2023-02-02T15:39:41.269Z,100726.88
2023-02-02T15:42:55.067Z,100737.22
2023-02-02T15:45:48.334Z,100735.41
2023-02-02T15:48:34.795Z,100736.34
2023-02-02T15:51:06.916Z,100749.88
2023-02-02T15:53:48.843Z,100745.97
2023-02-02T15:56:30.527Z,100747.19
2023-02-02T15:58:59.784Z,100760.53
2023-02-02T16:01:31.862Z,100757.28
2023-02-02T16:04:24.993Z,100755.16
2023-02-02T16:06:53.874Z,100761.78
2023-02-02T16:09:27.417Z,100769.88
2023-02-02T16:11:55.153Z,100775.19
2023-02-02T16:14:23.833Z,100783.09
2023-02-02T16:16:51.507Z,100780.50
2023-02-02T16:19:23.300Z,100787.38
2023-02-02T16:22:04.447Z,100792.97
2023-02-02T16:24:36.182Z,100798.28
2023-02-02T16:27:07.279Z,100797.34
2023-02-02T16:29:35.318Z,100795.59
2023-02-02T16:32:05.095Z,100797.56
2023-02-02T16:34:41.669Z,100803.41
2023-02-02T16:37:32.094Z,100801.16
2023-02-02T16:40:26.842Z,100806.37
2023-02-02T16:43:07.583Z,100804.16
2023-02-02T16:45:45.283Z,100807.69
2023-02-02T16:48:45.411Z,100811.78
2023-02-02T16:51:15.928Z,100809.44
2023-02-02T16:53:49.279Z,100814.34
2023-02-02T16:56:39.993Z,100821.91
2023-02-02T16:59:28.591Z,100815.56
2023-02-02T17:02:00.460Z,100815.31
2023-02-02T17:04:31.088Z,100815.38
2023-02-02T17:07:13.641Z,100817.91
2023-02-02T17:09:42.838Z,100821.81
2023-02-02T17:12:32.536Z,100818.00
2023-02-02T17:15:23.577Z,100822.09
2023-02-02T17:17:52.068Z,100834.00
2023-02-02T17:20:20.683Z,100832.41
2023-02-02T17:22:52.435Z,100823.50
2023-02-02T17:25:30.234Z,100826.28
2023-02-02T17:28:00.169Z,100834.28
2023-02-02T17:30:29.394Z,100830.41
2023-02-02T17:32:57.382Z,100834.97
2023-02-02T17:35:29.764Z,100843.44
2023-02-02T17:38:02.852Z,100846.22
2023-02-02T17:40:30.434Z,100850.47
2023-02-02T17:42:57.835Z,100831.69
2023-02-02T17:45:36.559Z,100843.97
2023-02-02T17:48:05.260Z,100858.38
2023-02-02T17:50:34.003Z,100850.09
2023-02-02T17:53:01.478Z,100864.03
2023-02-02T17:55:40.564Z,100862.06
2023-02-02T17:58:10.411Z,100864.00
2023-02-02T18:00:38.856Z,100866.97
2023-02-02T18:03:22.673Z,100862.50
2023-02-02T18:05:50.522Z,100876.53
2023-02-02T18:08:18.490Z,100871.84
2023-02-02T18:10:46.157Z,100870.09
2023-02-02T18:13:16.298Z,100876.50
2023-02-02T18:15:44.404Z,100882.44
2023-02-02T18:18:12.592Z,100877.75
2023-02-02T18:20:45.156Z,100880.59
2023-02-02T18:23:13.753Z,100880.00
2023-02-02T18:25:41.845Z,100886.81
2023-02-02T18:28:10.579Z,100882.94
2023-02-02T18:30:39.456Z,100891.16
2023-02-02T18:33:11.273Z,100905.69
2023-02-02T18:35:42.878Z,100900.75
2023-02-02T18:38:11.013Z,100900.00
2023-02-02T18:40:39.031Z,100900.84
2023-02-02T18:43:06.889Z,100905.47
2023-02-02T18:45:35.689Z,100905.72
2023-02-02T18:48:04.582Z,100901.09
2023-02-02T18:50:32.008Z,100902.47
2023-02-02T18:52:59.869Z,100900.72
2023-02-02T18:55:28.070Z,100906.16
2023-02-02T18:57:56.075Z,100915.72
2023-02-02T19:00:23.922Z,100908.84
2023-02-02T19:02:52.076Z,100910.69
2023-02-02T19:05:38.730Z,100920.16
2023-02-02T19:08:06.790Z,100925.72
2023-02-02T19:10:34.545Z,100917.06
2023-02-02T19:13:19.758Z,100919.94
2023-02-02T19:15:49.871Z,100924.06
2023-02-02T19:18:24.073Z,100931.75
2023-02-02T19:20:52.620Z,100932.25
2023-02-02T19:23:25.875Z,100933.19
2023-02-02T19:25:56.096Z,100941.75
2023-02-02T19:28:26.484Z,100948.03
2023-02-02T19:30:56.876Z,100950.88
2023-02-02T19:33:39.492Z,100956.25
2023-02-02T19:36:16.648Z,100969.84
2023-02-02T19:38:45.290Z,100966.16
2023-02-02T19:41:24.230Z,100967.81
2023-02-02T19:43:58.491Z,100972.53
2023-02-02T19:46:28.132Z,100978.97
2023-02-02T19:49:13.417Z,100970.50
2023-02-02T19:51:43.383Z,100983.28
2023-02-02T19:54:33.090Z,100981.84
2023-02-02T19:57:13.819Z,100984.50
2023-02-02T19:59:45.378Z,100975.53
2023-02-02T20:02:30.691Z,100995.63
2023-02-02T20:05:03.668Z,100991.12
2023-02-02T20:07:31.413Z,100984.47
2023-02-02T20:10:16.215Z,100987.09
2023-02-02T20:12:43.896Z,100983.06
2023-02-02T20:15:35.448Z,100975.78
2023-02-02T20:18:14.258Z,100980.56
2023-02-02T20:20:44.600Z,100982.22
2023-02-02T20:23:29.716Z,100988.59
2023-02-02T20:25:59.141Z,100991.53
2023-02-02T20:28:33.430Z,100994.06
2023-02-02T20:31:05.515Z,101009.59
2023-02-02T20:33:33.694Z,101024.13
2023-02-02T20:36:21.867Z,101023.06
2023-02-02T20:38:49.733Z,101041.09
2023-02-02T20:41:18.815Z,101040.16
2023-02-02T20:43:46.445Z,101031.38
2023-02-02T20:46:15.282Z,101030.91
2023-02-02T20:48:43.365Z,101023.22
2023-02-02T20:51:11.193Z,101024.97
2023-02-02T20:53:41.040Z,101027.00
2023-02-02T20:56:08.771Z,101032.06
2023-02-02T20:58:36.326Z,101040.16
2023-02-02T21:01:05.517Z,101044.16
2023-02-02T21:03:33.430Z,101045.16
2023-02-02T21:06:00.856Z,101042.75
2023-02-02T21:08:28.882Z,101053.63
2023-02-02T21:10:56.999Z,101058.59
2023-02-02T21:13:24.655Z,101059.94
2023-02-02T21:15:59.078Z,101066.25
2023-02-02T21:18:26.961Z,101056.06
2023-02-02T21:20:54.547Z,101076.25
2023-02-02T21:23:22.133Z,101064.41
2023-02-02T21:25:49.793Z,101080.28
2023-02-02T21:28:17.841Z,101081.56
2023-02-02T21:30:45.924Z,101086.78
2023-02-02T21:33:13.481Z,101093.66
2023-02-02T21:35:41.297Z,101100.47
2023-02-02T21:38:15.252Z,101096.41
2023-02-02T21:40:43.044Z,101096.62
2023-02-02T21:43:18.383Z,101099.44
2023-02-02T21:45:51.424Z,101094.09
2023-02-02T21:48:38.767Z,101092.25
2023-02-02T21:51:25.296Z,101097.91
2023-02-02T21:53:52.973Z,101077.56
2023-02-02T21:56:41.841Z,101075.97
2023-02-02T21:59:17.708Z,101088.81
2023-02-02T22:01:48.139Z,101095.13
2023-02-02T22:04:25.951Z,101092.59
2023-02-02T22:07:00.470Z,101105.56
2023-02-02T22:09:37.076Z,101100.25
2023-02-02T22:12:20.946Z,101103.69
2023-02-02T22:14:51.263Z,101115.41
2023-02-02T22:17:39.833Z,101113.88
2023-02-02T22:20:26.996Z,101114.00
2023-02-02T22:22:54.565Z,101110.19
2023-02-02T22:25:32.476Z,101110.38
2023-02-02T22:28:05.041Z,101124.31
2023-02-02T22:30:32.929Z,101124.41
2023-02-02T22:33:00.347Z,101127.28
2023-02-02T22:35:27.753Z,101135.00
2023-02-02T22:37:55.800Z,101136.66
2023-02-02T22:40:23.445Z,101139.75
2023-02-02T22:42:56.771Z,101144.53
2023-02-02T22:45:25.138Z,101142.00
2023-02-02T22:47:53.419Z,101130.50
2023-02-02T22:50:23.943Z,101144.03
2023-02-02T22:52:52.443Z,101146.78
2023-02-02T22:55:20.549Z,101144.53
2023-02-02T22:57:48.396Z,101142.78
2023-02-02T23:00:19.620Z,101132.19
2023-02-02T23:02:47.503Z,101144.69
2023-02-02T23:05:17.356Z,101141.22
2023-02-02T23:07:46.102Z,101145.34
2023-02-02T23:10:16.259Z,101158.28
2023-02-02T23:12:44.301Z,101161.16
2023-02-02T23:15:13.010Z,101164.50
2023-02-02T23:17:40.758Z,101168.00
2023-02-02T23:20:11.501Z,101174.81
2023-02-02T23:22:39.759Z,101174.81
2023-02-02T23:25:07.701Z,101179.34
2023-02-02T23:27:35.141Z,101183.78
2023-02-02T23:30:03.967Z,101189.19
2023-02-02T23:32:31.553Z,101190.00
2023-02-02T23:34:59.006Z,101193.25
2023-02-02T23:37:26.762Z,101201.94
2023-02-02T23:39:54.406Z,101207.19
2023-02-02T23:42:21.939Z,101211.69
2023-02-02T23:44:49.775Z,101208.88
2023-02-02T23:47:17.419Z,101215.81
2023-02-02T23:49:45.493Z,101214.19
2023-02-02T23:52:13.616Z,101222.44
2023-02-02T23:54:41.103Z,101214.78
2023-02-02T23:57:08.642Z,101240.75
2023-02-02T23:59:36.490Z,101235.47
